createdAt,value
2022-09-14T00:04:55.569Z,24.5
2022-09-14T00:14:55.580Z,23.8
2022-09-14T00:24:55.529Z,23.3
2022-09-14T00:34:55.534Z,22.9
2022-09-14T00:44:55.520Z,22.6
2022-09-14T00:54:55.464Z,22.4
2022-09-14T01:04:55.449Z,22.3
2022-09-14T01:14:55.460Z,22.1
2022-09-14T01:24:55.416Z,21.8
2022-09-14T01:34:55.373Z,21.7
2022-09-14T01:44:55.358Z,21.7
2022-09-14T01:54:55.371Z,21.5
2022-09-14T02:04:55.309Z,21.4
2022-09-14T02:14:55.298Z,21.4
2022-09-14T02:24:55.275Z,21.4
2022-09-14T02:34:55.253Z,21.3
2022-09-14T02:44:55.240Z,21.1
2022-09-14T02:54:55.234Z,21.1
2022-09-14T03:04:55.190Z,20.9
2022-09-14T03:14:55.178Z,20.9
2022-09-14T03:24:55.144Z,20.9
2022-09-14T03:34:55.158Z,20.7
2022-09-14T03:44:55.096Z,20.7
2022-09-14T03:54:55.119Z,20.7
2022-09-14T04:04:55.091Z,20.8
2022-09-14T04:14:55.037Z,20.9
2022-09-14T04:24:55.034Z,20.9
2022-09-14T04:34:55.021Z,20.7
2022-09-14T04:44:54.981Z,20.3
2022-09-14T04:54:54.993Z,19.6
2022-09-14T05:04:54.935Z,19.4
2022-09-14T05:14:54.932Z,19.3
2022-09-14T05:24:54.910Z,19
2022-09-14T05:34:54.898Z,18.9
2022-09-14T05:44:54.844Z,18.9
2022-09-14T05:54:54.871Z,18.9
2022-09-14T06:04:54.850Z,18.9
2022-09-14T06:14:54.823Z,19
2022-09-14T06:24:54.767Z,19
2022-09-14T06:34:54.747Z,18.9
2022-09-14T06:44:54.766Z,19
2022-09-14T06:54:54.738Z,19
2022-09-14T07:04:54.686Z,19
2022-09-14T07:14:54.693Z,19.2
2022-09-14T07:24:54.661Z,19.3
2022-09-14T07:34:54.631Z,19.4
2022-09-14T07:44:54.637Z,19.5
2022-09-14T07:54:54.617Z,19.5
2022-09-14T08:04:54.569Z,19.3
2022-09-14T08:14:54.572Z,19.3
2022-09-14T08:24:54.533Z,19.3
2022-09-14T08:34:54.507Z,19.6
2022-09-14T08:44:54.516Z,20
2022-09-14T08:54:54.500Z,20.4
2022-09-14T09:04:54.440Z,20.9
2022-09-14T09:14:54.453Z,21.1
2022-09-14T09:24:54.399Z,21.5
2022-09-14T09:34:54.378Z,22.2
2022-09-14T09:44:58.008Z,23.9
2022-09-14T09:54:54.368Z,25
2022-09-14T10:04:54.317Z,25.3
2022-09-14T10:24:54.279Z,24.8
2022-09-14T10:34:54.253Z,25.5
2022-09-14T10:44:54.258Z,25.6
2022-09-14T10:54:54.510Z,26
2022-09-14T11:04:54.186Z,26
2022-09-14T11:14:54.206Z,25.8
2022-09-14T11:24:54.141Z,25.6
2022-09-14T11:34:54.127Z,25.8
2022-09-14T11:44:54.140Z,26.4
2022-09-14T11:54:54.086Z,27
2022-09-14T12:04:54.057Z,27.4
2022-09-14T12:14:54.073Z,27.8
2022-09-14T12:24:54.017Z,27.9
2022-09-14T12:34:54.000Z,28.1
2022-09-14T12:44:54.003Z,28.7
2022-09-14T12:54:53.952Z,29.1
2022-09-14T13:04:53.922Z,29.5
2022-09-14T13:14:53.931Z,30.1
2022-09-14T13:24:53.881Z,29.8
2022-09-14T13:34:53.860Z,29.9
2022-09-14T13:44:53.874Z,29.9
2022-09-14T13:54:53.815Z,29.8
2022-09-14T14:04:53.796Z,30
2022-09-14T14:14:53.805Z,30.4
2022-09-14T14:25:12.693Z,30.1
2022-09-14T14:34:53.733Z,29.7
2022-09-14T14:44:53.790Z,29.4
2022-09-14T14:54:53.691Z,29.4
2022-09-14T15:04:53.660Z,28.9
2022-09-14T15:14:53.688Z,28.3
2022-09-14T15:24:53.672Z,27.9
2022-09-14T15:34:53.611Z,27.6
2022-09-14T15:44:53.569Z,27.3
2022-09-14T15:54:53.583Z,27
2022-09-14T16:04:53.525Z,26.9
2022-09-14T16:14:53.512Z,26.9
2022-09-14T16:24:53.515Z,26.7
2022-09-14T16:34:53.463Z,26.4
2022-09-14T16:44:53.439Z,26.2
2022-09-14T16:54:56.172Z,26.1
2022-09-14T17:04:53.403Z,25.8
2022-09-14T17:14:53.369Z,25.6
2022-09-14T17:24:53.382Z,25.4
2022-09-14T17:34:53.359Z,25.3
2022-09-14T17:44:53.310Z,25.2
2022-09-14T17:54:53.327Z,25.2
2022-09-14T18:04:53.268Z,25.1
2022-09-14T18:14:53.246Z,25.1
2022-09-14T18:24:53.270Z,25
2022-09-14T18:34:53.199Z,24.9
2022-09-14T18:44:53.183Z,25
2022-09-14T19:04:53.167Z,25
2022-09-14T19:14:53.131Z,25
2022-09-14T19:24:53.131Z,25
2022-09-14T19:34:53.080Z,24.6
2022-09-14T19:44:53.062Z,24.4
2022-09-14T19:54:53.067Z,24.2
2022-09-14T20:04:53.017Z,24.1
2022-09-14T20:14:53.025Z,23.8
2022-09-14T20:24:53.006Z,23.6
2022-09-14T20:34:52.946Z,23.4
2022-09-14T20:44:52.954Z,23.1
2022-09-14T20:54:52.940Z,23.2
2022-09-14T21:04:52.880Z,23.2
2022-09-14T21:14:52.888Z,23.2
2022-09-14T21:24:52.865Z,20.5
2022-09-14T21:34:52.813Z,18.5
2022-09-14T21:44:52.829Z,17.8
2022-09-14T21:54:52.801Z,17.6
2022-09-14T22:04:52.753Z,17.4
2022-09-14T22:14:52.768Z,17.3
2022-09-14T22:24:52.764Z,17.1
2022-09-14T22:34:52.695Z,17
2022-09-14T22:44:52.713Z,16.9
2022-09-14T22:54:52.694Z,17
2022-09-14T23:04:52.634Z,17
2022-09-14T23:14:52.654Z,17.1
2022-09-14T23:24:52.628Z,17.1
2022-09-14T23:34:52.572Z,17
2022-09-14T23:44:52.595Z,17.1
2022-09-14T23:54:52.564Z,17
